Joy, North Carolina
Current Conditions -  °F | °C
As of 7:15 PM on Monday 20 Oct 2014 (Local Time) from KMRN Reporting Station
Light Rain Light Rain  
Wind Chill: 59°   Ceiling: 9000
Heat Index: 59°   Visibility: 10mi
Dew Point: 56°   Wind: 0mph
Humidity: 88%   Direction: NA
Pressure: 30.02"   Gusts: NA
Location:  35.7567°N, 81.7518°W
Report Text: KMRN 202315Z AUTO 00000KT 10SM -RA BKN090 BKN120 15/13 A3002 RMK AO2 T01520133
Loading
Personal Weather Stations






























Interactive Weather Map
Tropical Storm Tracking
New forecast layout! Learn more

10-Day Weather Forecast

Advertisements
Track Severe Weather on mobile